sensor_id;sensor_type;location;lat;lon;timestamp;P1;durP1;ratioP1;P2;durP2;ratioP2
67816;SDS011;54614;47.576;7.524;2023-11-22T06:25:38;1.13;;;1.03;;
67816;SDS011;54614;47.576;7.524;2023-11-22T06:28:06;2.23;;;1.40;;
67816;SDS011;54614;47.576;7.524;2023-11-22T06:30:33;3.57;;;1.20;;
67816;SDS011;54614;47.576;7.524;2023-11-22T06:33:00;1.73;;;1.37;;
67816;SDS011;54614;47.576;7.524;2023-11-22T06:35:26;4.07;;;1.50;;
67816;SDS011;54614;47.576;7.524;2023-11-22T06:37:52;1.97;;;1.43;;
67816;SDS011;54614;47.576;7.524;2023-11-22T06:40:18;2.77;;;1.50;;
67816;SDS011;54614;47.576;7.524;2023-11-22T06:42:45;5.03;;;1.30;;
67816;SDS011;54614;47.576;7.524;2023-11-22T06:45:11;2.13;;;1.40;;
67816;SDS011;54614;47.576;7.524;2023-11-22T06:47:40;5.57;;;1.57;;
67816;SDS011;54614;47.576;7.524;2023-11-22T06:50:07;2.50;;;1.70;;
67816;SDS011;54614;47.576;7.524;2023-11-22T06:52:37;4.17;;;1.90;;
67816;SDS011;54614;47.576;7.524;2023-11-22T06:55:04;3.43;;;1.80;;
67816;SDS011;54614;47.576;7.524;2023-11-22T06:57:34;7.00;;;2.03;;
67816;SDS011;54614;47.576;7.524;2023-11-22T07:00:04;6.27;;;1.63;;
67816;SDS011;54614;47.576;7.524;2023-11-22T07:02:33;6.27;;;1.80;;
67816;SDS011;54614;47.576;7.524;2023-11-22T07:05:00;3.90;;;1.60;;
67816;SDS011;54614;47.576;7.524;2023-11-22T07:07:36;10.70;;;2.20;;
67816;SDS011;54614;47.576;7.524;2023-11-22T07:10:03;6.10;;;1.70;;
67816;SDS011;54614;47.576;7.524;2023-11-22T07:12:33;8.47;;;1.60;;
67816;SDS011;54614;47.576;7.524;2023-11-22T07:15:03;2.20;;;1.60;;
67816;SDS011;54614;47.576;7.524;2023-11-22T07:17:30;4.70;;;1.60;;
67816;SDS011;54614;47.576;7.524;2023-11-22T07:19:58;4.97;;;1.60;;
67816;SDS011;54614;47.576;7.524;2023-11-22T07:22:25;4.27;;;1.60;;
67816;SDS011;54614;47.576;7.524;2023-11-22T07:24:51;4.97;;;1.47;;
67816;SDS011;54614;47.576;7.524;2023-11-22T07:27:19;3.67;;;1.50;;
67816;SDS011;54614;47.576;7.524;2023-11-22T07:29:45;7.60;;;1.70;;
67816;SDS011;54614;47.576;7.524;2023-11-22T07:32:12;3.73;;;1.40;;
67816;SDS011;54614;47.576;7.524;2023-11-22T07:34:39;1.40;;;1.30;;
67816;SDS011;54614;47.576;7.524;2023-11-22T07:37:06;5.93;;;1.47;;
67816;SDS011;54614;47.576;7.524;2023-11-22T07:39:33;5.13;;;1.40;;
67816;SDS011;54614;47.576;7.524;2023-11-22T07:42:03;4.73;;;1.37;;
67816;SDS011;54614;47.576;7.524;2023-11-22T07:44:33;3.53;;;1.47;;
67816;SDS011;54614;47.576;7.524;2023-11-22T07:47:02;2.00;;;1.30;;
67816;SDS011;54614;47.576;7.524;2023-11-22T07:49:32;4.03;;;1.30;;
67816;SDS011;54614;47.576;7.524;2023-11-22T07:52:02;1.90;;;1.30;;
67816;SDS011;54614;47.576;7.524;2023-11-22T07:54:29;2.10;;;1.30;;
67816;SDS011;54614;47.576;7.524;2023-11-22T07:56:55;2.40;;;1.30;;
67816;SDS011;54614;47.576;7.524;2023-11-22T07:59:21;1.40;;;1.27;;
67816;SDS011;54614;47.576;7.524;2023-11-22T08:01:47;2.33;;;1.30;;
67816;SDS011;54614;47.576;7.524;2023-11-22T08:04:13;2.60;;;1.40;;
67816;SDS011;54614;47.576;7.524;2023-11-22T08:06:41;1.87;;;1.40;;
67816;SDS011;54614;47.576;7.524;2023-11-22T08:09:07;1.97;;;1.40;;
67816;SDS011;54614;47.576;7.524;2023-11-22T08:11:34;12.63;;;1.47;;
67816;SDS011;54614;47.576;7.524;2023-11-22T08:14:00;1.40;;;1.30;;
67816;SDS011;54614;47.576;7.524;2023-11-22T08:16:27;3.13;;;1.33;;
67816;SDS011;54614;47.576;7.524;2023-11-22T08:18:53;1.70;;;1.23;;
67816;SDS011;54614;47.576;7.524;2023-11-22T08:21:19;1.30;;;1.20;;
67816;SDS011;54614;47.576;7.524;2023-11-22T08:23:45;8.33;;;1.70;;
67816;SDS011;54614;47.576;7.524;2023-11-22T08:26:14;3.53;;;1.30;;
67816;SDS011;54614;47.576;7.524;2023-11-22T08:28:41;3.00;;;1.40;;
67816;SDS011;54614;47.576;7.524;2023-11-22T08:31:07;2.50;;;1.27;;
67816;SDS011;54614;47.576;7.524;2023-11-22T08:33:34;3.23;;;1.20;;
67816;SDS011;54614;47.576;7.524;2023-11-22T08:36:07;2.23;;;1.23;;
67816;SDS011;54614;47.576;7.524;2023-11-22T08:38:37;2.57;;;1.40;;
67816;SDS011;54614;47.576;7.524;2023-11-22T08:41:07;4.77;;;1.23;;
67816;SDS011;54614;47.576;7.524;2023-11-22T08:43:38;4.17;;;1.30;;
67816;SDS011;54614;47.576;7.524;2023-11-22T08:46:04;1.40;;;1.30;;
67816;SDS011;54614;47.576;7.524;2023-11-22T08:48:32;1.77;;;1.30;;
67816;SDS011;54614;47.576;7.524;2023-11-22T08:50:58;2.70;;;1.20;;
67816;SDS011;54614;47.576;7.524;2023-11-22T08:53:26;3.90;;;1.40;;
67816;SDS011;54614;47.576;7.524;2023-11-22T08:55:52;3.50;;;1.13;;
67816;SDS011;54614;47.576;7.524;2023-11-22T08:58:20;1.60;;;1.23;;
67816;SDS011;54614;47.576;7.524;2023-11-22T09:00:48;3.17;;;1.20;;
67816;SDS011;54614;47.576;7.524;2023-11-22T09:03:13;2.77;;;1.20;;
67816;SDS011;54614;47.576;7.524;2023-11-22T09:05:39;1.60;;;1.30;;
67816;SDS011;54614;47.576;7.524;2023-11-22T09:08:06;1.63;;;1.30;;
67816;SDS011;54614;47.576;7.524;2023-11-22T09:10:32;4.93;;;1.30;;
67816;SDS011;54614;47.576;7.524;2023-11-22T09:12:57;1.60;;;1.10;;
67816;SDS011;54614;47.576;7.524;2023-11-22T09:15:24;1.47;;;1.20;;
67816;SDS011;54614;47.576;7.524;2023-11-22T09:17:54;2.13;;;1.20;;
67816;SDS011;54614;47.576;7.524;2023-11-22T09:20:21;1.23;;;1.13;;
67816;SDS011;54614;47.576;7.524;2023-11-22T09:22:50;1.20;;;1.10;;
67816;SDS011;54614;47.576;7.524;2023-11-22T09:25:22;1.17;;;1.10;;
67816;SDS011;54614;47.576;7.524;2023-11-22T09:27:51;1.90;;;1.20;;
67816;SDS011;54614;47.576;7.524;2023-11-22T09:30:21;3.67;;;1.30;;
67816;SDS011;54614;47.576;7.524;2023-11-22T09:33:03;1.30;;;1.20;;
67816;SDS011;54614;47.576;7.524;2023-11-22T09:35:32;1.10;;;1.10;;
67816;SDS011;54614;47.576;7.524;2023-11-22T09:38:08;2.20;;;1.13;;
67816;SDS011;54614;47.576;7.524;2023-11-22T09:40:39;1.20;;;1.13;;
67816;SDS011;54614;47.576;7.524;2023-11-22T09:43:12;1.30;;;1.20;;
67816;SDS011;54614;47.576;7.524;2023-11-22T09:45:42;1.73;;;1.23;;
67816;SDS011;54614;47.576;7.524;2023-11-22T09:48:16;3.85;;;1.15;;
67816;SDS011;54614;47.576;7.524;2023-11-22T09:51:04;2.23;;;1.30;;
67816;SDS011;54614;47.576;7.524;2023-11-22T09:56:08;1.40;;;1.30;;
67816;SDS011;54614;47.576;7.524;2023-11-22T09:58:41;1.50;;;1.40;;
67816;SDS011;54614;47.576;7.524;2023-11-22T10:01:13;2.30;;;1.33;;
67816;SDS011;54614;47.576;7.524;2023-11-22T10:03:41;1.80;;;1.20;;
67816;SDS011;54614;47.576;7.524;2023-11-22T10:06:07;2.23;;;1.30;;
67816;SDS011;54614;47.576;7.524;2023-11-22T10:08:33;1.30;;;1.30;;
67816;SDS011;54614;47.576;7.524;2023-11-22T10:11:00;1.30;;;1.20;;
67816;SDS011;54614;47.576;7.524;2023-11-22T10:13:26;1.50;;;1.30;;
67816;SDS011;54614;47.576;7.524;2023-11-22T10:15:53;1.17;;;1.17;;
67816;SDS011;54614;47.576;7.524;2023-11-22T10:18:19;2.33;;;1.40;;
67816;SDS011;54614;47.576;7.524;2023-11-22T10:20:47;1.57;;;1.40;;
67816;SDS011;54614;47.576;7.524;2023-11-22T10:23:18;1.40;;;1.20;;
67816;SDS011;54614;47.576;7.524;2023-11-22T10:25:50;1.40;;;1.30;;
67816;SDS011;54614;47.576;7.524;2023-11-22T10:30:46;1.50;;;1.40;;
67816;SDS011;54614;47.576;7.524;2023-11-22T10:33:14;2.87;;;1.23;;
67816;SDS011;54614;47.576;7.524;2023-11-22T10:35:45;2.47;;;1.33;;
67816;SDS011;54614;47.576;7.524;2023-11-22T10:38:16;1.50;;;1.40;;
67816;SDS011;54614;47.576;7.524;2023-11-22T10:40:43;1.67;;;1.37;;
67816;SDS011;54614;47.576;7.524;2023-11-22T10:43:14;2.03;;;1.40;;
67816;SDS011;54614;47.576;7.524;2023-11-22T10:45:41;4.30;;;1.50;;
67816;SDS011;54614;47.576;7.524;2023-11-22T10:48:15;1.80;;;1.40;;
67816;SDS011;54614;47.576;7.524;2023-11-22T10:50:42;2.10;;;1.40;;
67816;SDS011;54614;47.576;7.524;2023-11-22T10:53:12;2.10;;;1.20;;
67816;SDS011;54614;47.576;7.524;2023-11-22T10:55:47;1.30;;;1.20;;
67816;SDS011;54614;47.576;7.524;2023-11-22T10:58:14;1.13;;;1.13;;
67816;SDS011;54614;47.576;7.524;2023-11-22T11:00:42;1.50;;;1.30;;
67816;SDS011;54614;47.576;7.524;2023-11-22T11:03:14;4.67;;;1.60;;
67816;SDS011;54614;47.576;7.524;2023-11-22T11:05:50;6.63;;;1.40;;
67816;SDS011;54614;47.576;7.524;2023-11-22T11:08:29;2.23;;;1.40;;
67816;SDS011;54614;47.576;7.524;2023-11-22T11:10:56;3.43;;;1.40;;
67816;SDS011;54614;47.576;7.524;2023-11-22T11:13:24;3.47;;;1.50;;
67816;SDS011;54614;47.576;7.524;2023-11-22T11:15:51;12.83;;;1.60;;
67816;SDS011;54614;47.576;7.524;2023-11-22T11:18:19;3.13;;;1.50;;
67816;SDS011;54614;47.576;7.524;2023-11-22T11:20:48;4.60;;;1.60;;
67816;SDS011;54614;47.576;7.524;2023-11-22T11:23:21;4.87;;;1.47;;
67816;SDS011;54614;47.576;7.524;2023-11-22T11:25:54;5.70;;;1.50;;
67816;SDS011;54614;47.576;7.524;2023-11-22T11:28:22;7.20;;;2.00;;
67816;SDS011;54614;47.576;7.524;2023-11-22T11:30:55;7.90;;;1.80;;
67816;SDS011;54614;47.576;7.524;2023-11-22T11:33:34;11.70;;;2.03;;
67816;SDS011;54614;47.576;7.524;2023-11-22T11:36:25;13.50;;;1.77;;
67816;SDS011;54614;47.576;7.524;2023-11-22T11:39:00;4.57;;;1.60;;
67816;SDS011;54614;47.576;7.524;2023-11-22T11:41:33;3.17;;;1.63;;
67816;SDS011;54614;47.576;7.524;2023-11-22T11:44:02;5.43;;;1.50;;
67816;SDS011;54614;47.576;7.524;2023-11-22T11:46:32;3.03;;;1.60;;
67816;SDS011;54614;47.576;7.524;2023-11-22T11:48:58;2.50;;;1.57;;
67816;SDS011;54614;47.576;7.524;2023-11-22T11:51:27;2.47;;;1.73;;
67816;SDS011;54614;47.576;7.524;2023-11-22T11:53:54;1.73;;;1.50;;
67816;SDS011;54614;47.576;7.524;2023-11-22T11:56:21;5.23;;;1.70;;
67816;SDS011;54614;47.576;7.524;2023-11-22T11:58:48;2.40;;;1.63;;
67816;SDS011;54614;47.576;7.524;2023-11-22T12:01:16;3.03;;;1.50;;
67816;SDS011;54614;47.576;7.524;2023-11-22T12:03:45;2.27;;;1.50;;
67816;SDS011;54614;47.576;7.524;2023-11-22T12:06:14;5.63;;;1.50;;
67816;SDS011;54614;47.576;7.524;2023-11-22T12:08:42;3.07;;;1.60;;
67816;SDS011;54614;47.576;7.524;2023-11-22T12:11:08;3.00;;;1.40;;
67816;SDS011;54614;47.576;7.524;2023-11-22T12:13:35;4.18;;;1.60;;
67816;SDS011;54614;47.576;7.524;2023-11-22T12:16:13;2.90;;;1.50;;
67816;SDS011;54614;47.576;7.524;2023-11-22T12:18:42;3.37;;;1.40;;
67816;SDS011;54614;47.576;7.524;2023-11-22T12:21:10;4.20;;;1.60;;
67816;SDS011;54614;47.576;7.524;2023-11-22T12:23:38;7.00;;;1.70;;
67816;SDS011;54614;47.576;7.524;2023-11-22T12:26:09;2.50;;;1.80;;
67816;SDS011;54614;47.576;7.524;2023-11-22T12:28:39;5.00;;;2.70;;
67816;SDS011;54614;47.576;7.524;2023-11-22T12:31:13;6.10;;;3.87;;
67816;SDS011;54614;47.576;7.524;2023-11-22T12:33:40;6.47;;;3.60;;
67816;SDS011;54614;47.576;7.524;2023-11-22T12:36:08;6.20;;;3.97;;
67816;SDS011;54614;47.576;7.524;2023-11-22T12:38:36;11.53;;;4.20;;
67816;SDS011;54614;47.576;7.524;2023-11-22T12:41:02;9.60;;;3.85;;
67816;SDS011;54614;47.576;7.524;2023-11-22T12:43:31;6.85;;;3.80;;
67816;SDS011;54614;47.576;7.524;2023-11-22T12:46:02;9.73;;;4.17;;
67816;SDS011;54614;47.576;7.524;2023-11-22T12:48:39;6.50;;;4.17;;
67816;SDS011;54614;47.576;7.524;2023-11-22T12:51:16;10.53;;;3.93;;
67816;SDS011;54614;47.576;7.524;2023-11-22T12:53:46;10.80;;;4.23;;
67816;SDS011;54614;47.576;7.524;2023-11-22T12:56:12;8.65;;;4.35;;
67816;SDS011;54614;47.576;7.524;2023-11-22T12:58:38;7.83;;;4.23;;
67816;SDS011;54614;47.576;7.524;2023-11-22T13:01:04;10.40;;;4.47;;
67816;SDS011;54614;47.576;7.524;2023-11-22T13:03:30;8.63;;;4.27;;
67816;SDS011;54614;47.576;7.524;2023-11-22T13:05:56;9.67;;;4.50;;
67816;SDS011;54614;47.576;7.524;2023-11-22T13:08:22;7.10;;;4.10;;
67816;SDS011;54614;47.576;7.524;2023-11-22T13:10:53;6.27;;;4.13;;
67816;SDS011;54614;47.576;7.524;2023-11-22T13:13:23;11.07;;;4.50;;
67816;SDS011;54614;47.576;7.524;2023-11-22T13:15:51;7.50;;;4.25;;
67816;SDS011;54614;47.576;7.524;2023-11-22T13:18:18;5.68;;;3.85;;
67816;SDS011;54614;47.576;7.524;2023-11-22T13:20:44;16.47;;;3.90;;
67816;SDS011;54614;47.576;7.524;2023-11-22T13:23:11;8.40;;;3.83;;
67816;SDS011;54614;47.576;7.524;2023-11-22T13:25:38;9.93;;;4.17;;
67816;SDS011;54614;47.576;7.524;2023-11-22T13:28:06;7.03;;;3.73;;
67816;SDS011;54614;47.576;7.524;2023-11-22T13:30:33;9.10;;;3.70;;
67816;SDS011;54614;47.576;7.524;2023-11-22T13:32:59;8.37;;;3.90;;
67816;SDS011;54614;47.576;7.524;2023-11-22T13:35:26;7.00;;;3.90;;
67816;SDS011;54614;47.576;7.524;2023-11-22T13:37:59;8.15;;;3.63;;
67816;SDS011;54614;47.576;7.524;2023-11-22T13:40:27;7.03;;;3.70;;
67816;SDS011;54614;47.576;7.524;2023-11-22T13:42:56;8.13;;;3.60;;
67816;SDS011;54614;47.576;7.524;2023-11-22T13:45:23;5.80;;;3.57;;
67816;SDS011;54614;47.576;7.524;2023-11-22T13:47:50;6.87;;;3.57;;
67816;SDS011;54614;47.576;7.524;2023-11-22T13:50:22;9.00;;;3.40;;
67816;SDS011;54614;47.576;7.524;2023-11-22T13:52:49;5.43;;;3.40;;
67816;SDS011;54614;47.576;7.524;2023-11-22T13:55:19;6.07;;;3.10;;
67816;SDS011;54614;47.576;7.524;2023-11-22T13:57:48;5.87;;;3.30;;
67816;SDS011;54614;47.576;7.524;2023-11-22T14:00:26;7.83;;;3.43;;
67816;SDS011;54614;47.576;7.524;2023-11-22T14:02:58;6.07;;;3.20;;
67816;SDS011;54614;47.576;7.524;2023-11-22T14:05:30;6.50;;;3.47;;
67816;SDS011;54614;47.576;7.524;2023-11-22T14:07:59;5.07;;;3.00;;
67816;SDS011;54614;47.576;7.524;2023-11-22T14:10:25;5.20;;;3.13;;
67816;SDS011;54614;47.576;7.524;2023-11-22T14:12:51;4.37;;;3.10;;
67816;SDS011;54614;47.576;7.524;2023-11-22T14:15:17;5.75;;;2.83;;
67816;SDS011;54614;47.576;7.524;2023-11-22T14:17:46;4.77;;;2.83;;
67816;SDS011;54614;47.576;7.524;2023-11-22T14:20:16;7.28;;;2.90;;
67816;SDS011;54614;47.576;7.524;2023-11-22T14:22:41;4.20;;;2.80;;
67816;SDS011;54614;47.576;7.524;2023-11-22T14:25:08;5.40;;;2.90;;
67816;SDS011;54614;47.576;7.524;2023-11-22T14:27:38;4.53;;;2.90;;
67816;SDS011;54614;47.576;7.524;2023-11-22T14:30:09;4.07;;;2.63;;
67816;SDS011;54614;47.576;7.524;2023-11-22T14:32:40;5.57;;;2.80;;
67816;SDS011;54614;47.576;7.524;2023-11-22T14:35:09;4.03;;;2.77;;
67816;SDS011;54614;47.576;7.524;2023-11-22T14:37:37;5.10;;;2.80;;
67816;SDS011;54614;47.576;7.524;2023-11-22T14:40:08;2.93;;;2.30;;
67816;SDS011;54614;47.576;7.524;2023-11-22T14:42:39;4.53;;;2.60;;
67816;SDS011;54614;47.576;7.524;2023-11-22T14:45:10;4.78;;;2.88;;
67816;SDS011;54614;47.576;7.524;2023-11-22T14:47:36;4.73;;;2.73;;
67816;SDS011;54614;47.576;7.524;2023-11-22T14:50:04;7.30;;;2.83;;
67816;SDS011;54614;47.576;7.524;2023-11-22T14:52:33;3.83;;;2.40;;
67816;SDS011;54614;47.576;7.524;2023-11-22T14:54:59;4.10;;;2.30;;
67816;SDS011;54614;47.576;7.524;2023-11-22T14:57:26;3.53;;;2.60;;
67816;SDS011;54614;47.576;7.524;2023-11-22T14:59:52;3.70;;;2.37;;
67816;SDS011;54614;47.576;7.524;2023-11-22T15:02:18;4.90;;;2.37;;
67816;SDS011;54614;47.576;7.524;2023-11-22T15:04:44;4.67;;;2.57;;
67816;SDS011;54614;47.576;7.524;2023-11-22T15:07:10;3.60;;;2.63;;
67816;SDS011;54614;47.576;7.524;2023-11-22T15:09:37;5.63;;;2.27;;
67816;SDS011;54614;47.576;7.524;2023-11-22T15:12:03;3.23;;;2.33;;
67816;SDS011;54614;47.576;7.524;2023-11-22T15:14:32;3.20;;;2.40;;
67816;SDS011;54614;47.576;7.524;2023-11-22T15:17:01;5.07;;;2.50;;
67816;SDS011;54614;47.576;7.524;2023-11-22T15:19:30;5.40;;;2.40;;
67816;SDS011;54614;47.576;7.524;2023-11-22T15:21:57;3.83;;;2.60;;
67816;SDS011;54614;47.576;7.524;2023-11-22T15:24:23;3.22;;;2.35;;
67816;SDS011;54614;47.576;7.524;2023-11-22T15:26:51;4.10;;;2.30;;
67816;SDS011;54614;47.576;7.524;2023-11-22T15:29:17;5.27;;;2.53;;
67816;SDS011;54614;47.576;7.524;2023-11-22T15:31:43;3.23;;;2.50;;
67816;SDS011;54614;47.576;7.524;2023-11-22T15:34:09;5.33;;;2.23;;
67816;SDS011;54614;47.576;7.524;2023-11-22T15:36:39;4.45;;;2.22;;
67816;SDS011;54614;47.576;7.524;2023-11-22T15:39:05;3.27;;;2.47;;
67816;SDS011;54614;47.576;7.524;2023-11-22T15:41:36;4.67;;;2.40;;
67816;SDS011;54614;47.576;7.524;2023-11-22T15:44:03;4.77;;;2.40;;
67816;SDS011;54614;47.576;7.524;2023-11-22T15:46:30;4.10;;;2.43;;
67816;SDS011;54614;47.576;7.524;2023-11-22T15:48:56;2.80;;;2.30;;
67816;SDS011;54614;47.576;7.524;2023-11-22T15:51:23;3.47;;;2.20;;
67816;SDS011;54614;47.576;7.524;2023-11-22T15:53:48;5.43;;;2.13;;
67816;SDS011;54614;47.576;7.524;2023-11-22T15:56:14;4.23;;;2.20;;
67816;SDS011;54614;47.576;7.524;2023-11-22T15:58:40;4.53;;;2.27;;
67816;SDS011;54614;47.576;7.524;2023-11-22T16:01:10;2.40;;;2.10;;
67816;SDS011;54614;47.576;7.524;2023-11-22T16:03:39;4.67;;;2.40;;
67816;SDS011;54614;47.576;7.524;2023-11-22T16:06:06;4.00;;;2.20;;
67816;SDS011;54614;47.576;7.524;2023-11-22T16:08:33;6.40;;;2.17;;
67816;SDS011;54614;47.576;7.524;2023-11-22T16:10:59;4.00;;;2.33;;
67816;SDS011;54614;47.576;7.524;2023-11-22T16:13:25;5.30;;;2.20;;
67816;SDS011;54614;47.576;7.524;2023-11-22T16:15:54;4.63;;;2.40;;
67816;SDS011;54614;47.576;7.524;2023-11-22T16:18:24;4.40;;;2.30;;
67816;SDS011;54614;47.576;7.524;2023-11-22T16:20:54;4.03;;;2.50;;
67816;SDS011;54614;47.576;7.524;2023-11-22T16:23:21;3.67;;;2.07;;
67816;SDS011;54614;47.576;7.524;2023-11-22T16:25:47;4.43;;;2.10;;
67816;SDS011;54614;47.576;7.524;2023-11-22T16:28:14;4.60;;;2.40;;
67816;SDS011;54614;47.576;7.524;2023-11-22T16:30:41;2.53;;;2.13;;
67816;SDS011;54614;47.576;7.524;2023-11-22T16:33:08;5.93;;;2.17;;
67816;SDS011;54614;47.576;7.524;2023-11-22T16:35:34;4.70;;;2.30;;
67816;SDS011;54614;47.576;7.524;2023-11-22T16:38:01;3.40;;;2.00;;
67816;SDS011;54614;47.576;7.524;2023-11-22T16:40:28;3.07;;;2.00;;
67816;SDS011;54614;47.576;7.524;2023-11-22T16:42:55;2.53;;;2.10;;
67816;SDS011;54614;47.576;7.524;2023-11-22T16:45:21;3.10;;;1.97;;
67816;SDS011;54614;47.576;7.524;2023-11-22T16:47:47;3.30;;;1.80;;
67816;SDS011;54614;47.576;7.524;2023-11-22T16:50:13;5.77;;;2.10;;
67816;SDS011;54614;47.576;7.524;2023-11-22T16:52:40;4.90;;;2.10;;
67816;SDS011;54614;47.576;7.524;2023-11-22T16:55:08;4.67;;;2.10;;
67816;SDS011;54614;47.576;7.524;2023-11-22T16:57:37;3.20;;;2.00;;
67816;SDS011;54614;47.576;7.524;2023-11-22T17:00:05;4.47;;;2.23;;
67816;SDS011;54614;47.576;7.524;2023-11-22T17:02:38;4.90;;;2.10;;
67816;SDS011;54614;47.576;7.524;2023-11-22T17:05:04;4.40;;;2.37;;
67816;SDS011;54614;47.576;7.524;2023-11-22T17:07:30;6.03;;;2.10;;
67816;SDS011;54614;47.576;7.524;2023-11-22T17:09:57;4.73;;;2.00;;
67816;SDS011;54614;47.576;7.524;2023-11-22T17:12:24;3.37;;;2.20;;
67816;SDS011;54614;47.576;7.524;2023-11-22T17:14:49;2.37;;;2.00;;
67816;SDS011;54614;47.576;7.524;2023-11-22T17:17:15;2.60;;;2.10;;
67816;SDS011;54614;47.576;7.524;2023-11-22T17:19:41;3.33;;;2.10;;
67816;SDS011;54614;47.576;7.524;2023-11-22T17:22:07;3.60;;;2.10;;
67816;SDS011;54614;47.576;7.524;2023-11-22T17:24:33;2.87;;;2.20;;
67816;SDS011;54614;47.576;7.524;2023-11-22T17:26:59;2.77;;;2.00;;
67816;SDS011;54614;47.576;7.524;2023-11-22T17:29:25;2.60;;;2.10;;
67816;SDS011;54614;47.576;7.524;2023-11-22T17:31:51;3.07;;;2.07;;
67816;SDS011;54614;47.576;7.524;2023-11-22T17:34:17;2.10;;;1.90;;
67816;SDS011;54614;47.576;7.524;2023-11-22T17:36:44;3.67;;;2.20;;
67816;SDS011;54614;47.576;7.524;2023-11-22T17:39:10;2.37;;;2.13;;
67816;SDS011;54614;47.576;7.524;2023-11-22T17:41:39;4.03;;;2.40;;
67816;SDS011;54614;47.576;7.524;2023-11-22T17:44:07;4.97;;;3.30;;
67816;SDS011;54614;47.576;7.524;2023-11-22T17:46:33;8.67;;;4.83;;
67816;SDS011;54614;47.576;7.524;2023-11-22T17:49:01;13.13;;;5.93;;
67816;SDS011;54614;47.576;7.524;2023-11-22T17:51:27;18.23;;;7.70;;
67816;SDS011;54614;47.576;7.524;2023-11-22T17:53:53;22.00;;;8.33;;
67816;SDS011;54614;47.576;7.524;2023-11-22T17:56:20;26.50;;;9.00;;
67816;SDS011;54614;47.576;7.524;2023-11-22T17:58:47;23.30;;;9.10;;
67816;SDS011;54614;47.576;7.524;2023-11-22T18:01:12;21.50;;;8.30;;
67816;SDS011;54614;47.576;7.524;2023-11-22T18:03:38;29.50;;;8.60;;
67816;SDS011;54614;47.576;7.524;2023-11-22T18:06:04;25.93;;;8.20;;
67816;SDS011;54614;47.576;7.524;2023-11-22T18:08:30;17.63;;;7.97;;
67816;SDS011;54614;47.576;7.524;2023-11-22T18:10:56;18.77;;;7.40;;
67816;SDS011;54614;47.576;7.524;2023-11-22T18:13:22;17.50;;;7.27;;
67816;SDS011;54614;47.576;7.524;2023-11-22T18:15:48;18.27;;;6.80;;
67816;SDS011;54614;47.576;7.524;2023-11-22T18:18:14;14.93;;;6.60;;
67816;SDS011;54614;47.576;7.524;2023-11-22T18:20:39;13.77;;;6.10;;
67816;SDS011;54614;47.576;7.524;2023-11-22T18:23:06;14.73;;;6.47;;
67816;SDS011;54614;47.576;7.524;2023-11-22T18:25:32;12.60;;;5.80;;
67816;SDS011;54614;47.576;7.524;2023-11-22T18:27:58;14.23;;;6.20;;
67816;SDS011;54614;47.576;7.524;2023-11-22T18:30:26;14.60;;;6.03;;
67816;SDS011;54614;47.576;7.524;2023-11-22T18:32:51;12.97;;;6.13;;
67816;SDS011;54614;47.576;7.524;2023-11-22T18:35:17;16.87;;;6.00;;
67816;SDS011;54614;47.576;7.524;2023-11-22T18:37:43;10.87;;;5.53;;
67816;SDS011;54614;47.576;7.524;2023-11-22T18:40:09;12.67;;;5.73;;
67816;SDS011;54614;47.576;7.524;2023-11-22T18:42:35;14.93;;;6.23;;
67816;SDS011;54614;47.576;7.524;2023-11-22T18:45:02;17.23;;;6.97;;
67816;SDS011;54614;47.576;7.524;2023-11-22T18:47:28;31.20;;;13.20;;
67816;SDS011;54614;47.576;7.524;2023-11-22T18:49:55;28.53;;;13.27;;
67816;SDS011;54614;47.576;7.524;2023-11-22T18:52:21;31.30;;;14.13;;
67816;SDS011;54614;47.576;7.524;2023-11-22T18:54:47;40.33;;;18.67;;
67816;SDS011;54614;47.576;7.524;2023-11-22T18:57:13;45.20;;;20.77;;
67816;SDS011;54614;47.576;7.524;2023-11-22T18:59:43;45.13;;;20.50;;
67816;SDS011;54614;47.576;7.524;2023-11-22T19:02:11;44.17;;;19.83;;
67816;SDS011;54614;47.576;7.524;2023-11-22T19:04:38;48.53;;;22.00;;
67816;SDS011;54614;47.576;7.524;2023-11-22T19:07:05;42.97;;;21.17;;
67816;SDS011;54614;47.576;7.524;2023-11-22T19:09:31;58.07;;;22.07;;
67816;SDS011;54614;47.576;7.524;2023-11-22T19:11:58;38.93;;;19.77;;
67816;SDS011;54614;47.576;7.524;2023-11-22T19:14:24;42.17;;;19.83;;
67816;SDS011;54614;47.576;7.524;2023-11-22T19:16:51;42.63;;;19.80;;
67816;SDS011;54614;47.576;7.524;2023-11-22T19:19:18;35.17;;;18.10;;
67816;SDS011;54614;47.576;7.524;2023-11-22T19:21:44;40.00;;;18.47;;
67816;SDS011;54614;47.576;7.524;2023-11-22T19:24:10;38.73;;;18.03;;
67816;SDS011;54614;47.576;7.524;2023-11-22T19:26:36;38.57;;;17.43;;
67816;SDS011;54614;47.576;7.524;2023-11-22T19:29:02;33.33;;;16.23;;
67816;SDS011;54614;47.576;7.524;2023-11-22T19:31:28;33.90;;;16.27;;
67816;SDS011;54614;47.576;7.524;2023-11-22T19:33:54;33.43;;;15.60;;
67816;SDS011;54614;47.576;7.524;2023-11-22T19:36:22;31.43;;;15.60;;
67816;SDS011;54614;47.576;7.524;2023-11-22T19:38:49;31.20;;;14.70;;
67816;SDS011;54614;47.576;7.524;2023-11-22T19:41:17;34.20;;;15.37;;
67816;SDS011;54614;47.576;7.524;2023-11-22T19:43:43;30.20;;;14.97;;
67816;SDS011;54614;47.576;7.524;2023-11-22T19:46:09;29.03;;;13.57;;
67816;SDS011;54614;47.576;7.524;2023-11-22T19:48:35;29.07;;;13.40;;
67816;SDS011;54614;47.576;7.524;2023-11-22T19:51:01;27.27;;;13.70;;
67816;SDS011;54614;47.576;7.524;2023-11-22T19:53:29;26.63;;;13.73;;
67816;SDS011;54614;47.576;7.524;2023-11-22T19:55:55;27.03;;;13.50;;
67816;SDS011;54614;47.576;7.524;2023-11-22T19:58:24;28.60;;;13.77;;
67816;SDS011;54614;47.576;7.524;2023-11-22T20:00:51;24.73;;;13.23;;
67816;SDS011;54614;47.576;7.524;2023-11-22T20:03:17;25.23;;;13.27;;
67816;SDS011;54614;47.576;7.524;2023-11-22T20:05:43;27.17;;;13.30;;
67816;SDS011;54614;47.576;7.524;2023-11-22T20:08:09;23.93;;;13.13;;
67816;SDS011;54614;47.576;7.524;2023-11-22T20:10:37;24.07;;;13.20;;
67816;SDS011;54614;47.576;7.524;2023-11-22T20:13:04;31.13;;;13.57;;
67816;SDS011;54614;47.576;7.524;2023-11-22T20:15:31;24.40;;;11.87;;
67816;SDS011;54614;47.576;7.524;2023-11-22T20:17:57;25.63;;;12.90;;
67816;SDS011;54614;47.576;7.524;2023-11-22T20:20:24;24.67;;;12.07;;
67816;SDS011;54614;47.576;7.524;2023-11-22T20:22:50;25.77;;;12.00;;
67816;SDS011;54614;47.576;7.524;2023-11-22T20:25:16;22.23;;;11.43;;
67816;SDS011;54614;47.576;7.524;2023-11-22T20:27:42;22.60;;;11.60;;
67816;SDS011;54614;47.576;7.524;2023-11-22T20:30:08;26.60;;;11.93;;
67816;SDS011;54614;47.576;7.524;2023-11-22T20:32:34;22.97;;;11.70;;
67816;SDS011;54614;47.576;7.524;2023-11-22T20:35:00;18.00;;;10.63;;
67816;SDS011;54614;47.576;7.524;2023-11-22T20:37:26;25.73;;;11.27;;
67816;SDS011;54614;47.576;7.524;2023-11-22T20:39:52;21.77;;;11.23;;
67816;SDS011;54614;47.576;7.524;2023-11-22T20:42:18;22.17;;;11.03;;
67816;SDS011;54614;47.576;7.524;2023-11-22T20:44:44;20.27;;;11.10;;
67816;SDS011;54614;47.576;7.524;2023-11-22T20:47:12;23.10;;;10.53;;
67816;SDS011;54614;47.576;7.524;2023-11-22T20:49:38;22.30;;;10.23;;
67816;SDS011;54614;47.576;7.524;2023-11-22T20:52:04;25.40;;;10.70;;
67816;SDS011;54614;47.576;7.524;2023-11-22T20:54:30;19.53;;;9.87;;
67816;SDS011;54614;47.576;7.524;2023-11-22T20:56:56;19.73;;;10.13;;
67816;SDS011;54614;47.576;7.524;2023-11-22T20:59:21;18.60;;;9.60;;
67816;SDS011;54614;47.576;7.524;2023-11-22T21:01:47;19.13;;;10.37;;
67816;SDS011;54614;47.576;7.524;2023-11-22T21:04:13;19.93;;;9.77;;
67816;SDS011;54614;47.576;7.524;2023-11-22T21:06:42;18.27;;;9.70;;
67816;SDS011;54614;47.576;7.524;2023-11-22T21:09:08;20.07;;;9.10;;
67816;SDS011;54614;47.576;7.524;2023-11-22T21:11:38;15.43;;;9.37;;
67816;SDS011;54614;47.576;7.524;2023-11-22T21:14:06;20.27;;;9.63;;
67816;SDS011;54614;47.576;7.524;2023-11-22T21:16:39;17.43;;;9.10;;